sensor_id;sensor_type;location;lat;lon;timestamp;pressure;altitude;pressure_sealevel;temperature;humidity
21828;BME280;11076;47.942;11.804;2024-01-15T00:04:02;92885.28;;;-1.20;42.71
21828;BME280;11076;47.942;11.804;2024-01-15T00:09:05;92881.13;;;-1.38;43.76
21828;BME280;11076;47.942;11.804;2024-01-15T00:14:09;92865.41;;;-0.97;43.25
21828;BME280;11076;47.942;11.804;2024-01-15T00:19:11;92878.88;;;-0.82;42.61
21828;BME280;11076;47.942;11.804;2024-01-15T00:24:13;92879.72;;;-0.71;42.29
21828;BME280;11076;47.942;11.804;2024-01-15T00:29:16;92893.84;;;-0.81;43.14
21828;BME280;11076;47.942;11.804;2024-01-15T00:34:18;92889.97;;;-0.58;42.14
21828;BME280;11076;47.942;11.804;2024-01-15T00:39:21;92885.84;;;-0.76;42.13
21828;BME280;11076;47.942;11.804;2024-01-15T00:44:23;92877.81;;;-0.76;41.98
21828;BME280;11076;47.942;11.804;2024-01-15T00:49:26;92876.91;;;-1.34;42.50
21828;BME280;11076;47.942;11.804;2024-01-15T00:54:29;92889.84;;;-1.21;42.31
21828;BME280;11076;47.942;11.804;2024-01-15T00:59:31;92886.72;;;-1.08;41.71
21828;BME280;11076;47.942;11.804;2024-01-15T01:04:34;92902.22;;;-1.05;41.71
21828;BME280;11076;47.942;11.804;2024-01-15T01:09:36;92891.53;;;-1.10;41.20
21828;BME280;11076;47.942;11.804;2024-01-15T01:14:38;92892.84;;;-1.72;42.32
21828;BME280;11076;47.942;11.804;2024-01-15T01:19:41;92911.09;;;-1.36;41.67
21828;BME280;11076;47.942;11.804;2024-01-15T01:24:43;92902.94;;;-1.19;40.88
21828;BME280;11076;47.942;11.804;2024-01-15T01:29:46;92914.84;;;-1.37;40.99
21828;BME280;11076;47.942;11.804;2024-01-15T01:34:48;92907.88;;;-1.38;41.16
21828;BME280;11076;47.942;11.804;2024-01-15T01:39:50;92921.28;;;-1.33;41.02
21828;BME280;11076;47.942;11.804;2024-01-15T01:44:53;92924.28;;;-1.25;41.07
21828;BME280;11076;47.942;11.804;2024-01-15T01:49:55;92927.88;;;-1.09;40.95
21828;BME280;11076;47.942;11.804;2024-01-15T01:55:00;92906.84;;;-1.32;41.44
21828;BME280;11076;47.942;11.804;2024-01-15T02:00:04;92909.09;;;-1.51;41.51
21828;BME280;11076;47.942;11.804;2024-01-15T02:05:14;92914.94;;;-1.54;41.38
21828;BME280;11076;47.942;11.804;2024-01-15T02:10:20;92925.53;;;-1.37;41.12
21828;BME280;11076;47.942;11.804;2024-01-15T02:15:22;92929.78;;;-1.41;40.76
21828;BME280;11076;47.942;11.804;2024-01-15T02:20:25;92944.03;;;-1.58;40.86
21828;BME280;11076;47.942;11.804;2024-01-15T02:25:28;92941.19;;;-1.46;40.71
21828;BME280;11076;47.942;11.804;2024-01-15T02:30:31;92951.31;;;-1.21;39.82
21828;BME280;11076;47.942;11.804;2024-01-15T02:35:34;92955.50;;;-1.30;40.41
21828;BME280;11076;47.942;11.804;2024-01-15T02:40:40;92965.63;;;-1.37;39.97
21828;BME280;11076;47.942;11.804;2024-01-15T02:45:42;92966.50;;;-1.27;39.77
21828;BME280;11076;47.942;11.804;2024-01-15T02:50:45;92967.19;;;-1.69;39.35
21828;BME280;11076;47.942;11.804;2024-01-15T02:55:47;92961.78;;;-1.96;39.55
21828;BME280;11076;47.942;11.804;2024-01-15T03:00:49;92958.81;;;-1.72;38.68
21828;BME280;11076;47.942;11.804;2024-01-15T03:05:52;92969.09;;;-1.37;37.77
21828;BME280;11076;47.942;11.804;2024-01-15T03:10:54;92965.09;;;-1.84;38.02
21828;BME280;11076;47.942;11.804;2024-01-15T03:15:56;92973.22;;;-2.61;39.54
21828;BME280;11076;47.942;11.804;2024-01-15T03:20:59;92991.03;;;-2.28;38.45
21828;BME280;11076;47.942;11.804;2024-01-15T03:26:03;92981.78;;;-2.20;38.64
21828;BME280;11076;47.942;11.804;2024-01-15T03:31:07;92978.53;;;-2.00;38.31
21828;BME280;11076;47.942;11.804;2024-01-15T03:36:10;92973.81;;;-1.71;37.46
21828;BME280;11076;47.942;11.804;2024-01-15T03:41:13;92974.19;;;-1.85;37.47
21828;BME280;11076;47.942;11.804;2024-01-15T03:46:15;92974.41;;;-2.74;38.57
21828;BME280;11076;47.942;11.804;2024-01-15T03:51:18;92964.41;;;-2.45;38.42
21828;BME280;11076;47.942;11.804;2024-01-15T03:56:20;92971.34;;;-2.44;38.04
21828;BME280;11076;47.942;11.804;2024-01-15T04:01:23;92957.91;;;-2.49;38.57
21828;BME280;11076;47.942;11.804;2024-01-15T04:06:25;92976.25;;;-2.75;38.83
21828;BME280;11076;47.942;11.804;2024-01-15T04:11:28;92978.03;;;-2.41;38.21
21828;BME280;11076;47.942;11.804;2024-01-15T04:16:30;92962.09;;;-2.36;38.24
21828;BME280;11076;47.942;11.804;2024-01-15T04:21:32;92952.91;;;-2.46;38.14
21828;BME280;11076;47.942;11.804;2024-01-15T04:26:35;92959.06;;;-2.45;38.27
21828;BME280;11076;47.942;11.804;2024-01-15T04:31:37;92960.34;;;-2.48;37.67
21828;BME280;11076;47.942;11.804;2024-01-15T04:36:40;92975.91;;;-2.61;37.73
21828;BME280;11076;47.942;11.804;2024-01-15T04:41:46;92977.53;;;-2.60;38.01
21828;BME280;11076;47.942;11.804;2024-01-15T04:46:48;92977.75;;;-2.45;38.01
21828;BME280;11076;47.942;11.804;2024-01-15T04:51:51;92989.25;;;-2.39;37.66
21828;BME280;11076;47.942;11.804;2024-01-15T04:56:53;92984.44;;;-2.42;38.35
21828;BME280;11076;47.942;11.804;2024-01-15T05:01:56;92990.69;;;-2.32;37.57
21828;BME280;11076;47.942;11.804;2024-01-15T05:06:58;92988.53;;;-2.74;38.73
21828;BME280;11076;47.942;11.804;2024-01-15T05:12:01;92995.50;;;-2.73;37.81
21828;BME280;11076;47.942;11.804;2024-01-15T05:17:03;92983.19;;;-2.74;38.32
21828;BME280;11076;47.942;11.804;2024-01-15T05:22:06;92972.00;;;-3.10;38.31
21828;BME280;11076;47.942;11.804;2024-01-15T05:27:09;92986.19;;;-2.87;38.35
21828;BME280;11076;47.942;11.804;2024-01-15T05:32:11;92976.88;;;-2.51;37.80
21828;BME280;11076;47.942;11.804;2024-01-15T05:37:13;92967.56;;;-2.48;37.21
21828;BME280;11076;47.942;11.804;2024-01-15T05:42:16;92956.97;;;-2.43;37.35
21828;BME280;11076;47.942;11.804;2024-01-15T05:47:18;92962.88;;;-2.58;38.06
21828;BME280;11076;47.942;11.804;2024-01-15T05:52:21;92956.13;;;-2.44;37.86
21828;BME280;11076;47.942;11.804;2024-01-15T05:57:24;92955.75;;;-2.52;37.31
21828;BME280;11076;47.942;11.804;2024-01-15T06:02:26;92958.44;;;-2.52;37.09
21828;BME280;11076;47.942;11.804;2024-01-15T06:07:28;92969.66;;;-2.28;37.20
21828;BME280;11076;47.942;11.804;2024-01-15T06:12:31;92969.22;;;-2.42;37.42
21828;BME280;11076;47.942;11.804;2024-01-15T06:17:34;92973.84;;;-2.76;37.71
21828;BME280;11076;47.942;11.804;2024-01-15T06:22:38;92972.66;;;-2.64;37.34
21828;BME280;11076;47.942;11.804;2024-01-15T06:27:41;92976.88;;;-2.68;38.00
21828;BME280;11076;47.942;11.804;2024-01-15T06:32:43;92981.75;;;-2.65;38.03
21828;BME280;11076;47.942;11.804;2024-01-15T06:37:46;92971.56;;;-2.46;37.16
21828;BME280;11076;47.942;11.804;2024-01-15T06:42:48;92982.44;;;-2.52;37.36
21828;BME280;11076;47.942;11.804;2024-01-15T06:47:51;92973.25;;;-2.39;37.96
21828;BME280;11076;47.942;11.804;2024-01-15T06:52:53;92983.13;;;-2.40;37.43
21828;BME280;11076;47.942;11.804;2024-01-15T06:57:56;92986.44;;;-2.33;37.17
21828;BME280;11076;47.942;11.804;2024-01-15T07:02:59;92984.69;;;-2.44;37.05
21828;BME280;11076;47.942;11.804;2024-01-15T07:08:01;92981.13;;;-2.50;37.62
21828;BME280;11076;47.942;11.804;2024-01-15T07:13:03;92981.53;;;-2.41;37.43
21828;BME280;11076;47.942;11.804;2024-01-15T07:18:07;92989.09;;;-2.72;38.00
21828;BME280;11076;47.942;11.804;2024-01-15T07:23:10;92975.31;;;-2.47;37.81
21828;BME280;11076;47.942;11.804;2024-01-15T07:28:12;92969.97;;;-2.47;37.90
21828;BME280;11076;47.942;11.804;2024-01-15T07:33:15;92981.91;;;-2.32;37.94
21828;BME280;11076;47.942;11.804;2024-01-15T07:38:18;92977.31;;;-2.37;37.53
21828;BME280;11076;47.942;11.804;2024-01-15T07:43:20;92976.81;;;-2.12;37.58
21828;BME280;11076;47.942;11.804;2024-01-15T07:48:23;92977.75;;;-2.45;38.10
21828;BME280;11076;47.942;11.804;2024-01-15T07:53:25;92977.66;;;-2.50;38.04
21828;BME280;11076;47.942;11.804;2024-01-15T07:58:28;92976.78;;;-1.90;39.25
21828;BME280;11076;47.942;11.804;2024-01-15T08:03:32;92962.53;;;-1.51;38.56
21828;BME280;11076;47.942;11.804;2024-01-15T08:08:34;92951.81;;;-1.78;38.54
21828;BME280;11076;47.942;11.804;2024-01-15T08:13:36;92944.00;;;-1.63;38.35
21828;BME280;11076;47.942;11.804;2024-01-15T08:18:41;92960.94;;;-1.74;38.16
21828;BME280;11076;47.942;11.804;2024-01-15T08:23:44;92944.34;;;-1.76;38.15
21828;BME280;11076;47.942;11.804;2024-01-15T08:28:46;92944.25;;;-1.87;38.04
21828;BME280;11076;47.942;11.804;2024-01-15T08:33:48;92947.47;;;-1.85;38.13
21828;BME280;11076;47.942;11.804;2024-01-15T08:38:51;92956.94;;;-1.99;38.66
21828;BME280;11076;47.942;11.804;2024-01-15T08:43:53;92959.16;;;-1.91;38.92
21828;BME280;11076;47.942;11.804;2024-01-15T08:48:56;92966.94;;;-1.89;39.12
21828;BME280;11076;47.942;11.804;2024-01-15T08:53:58;92969.41;;;-1.82;39.08
21828;BME280;11076;47.942;11.804;2024-01-15T08:59:01;92956.75;;;-1.92;39.24
21828;BME280;11076;47.942;11.804;2024-01-15T09:04:03;92971.50;;;-1.62;38.85
21828;BME280;11076;47.942;11.804;2024-01-15T09:09:06;92961.91;;;-1.63;39.09
21828;BME280;11076;47.942;11.804;2024-01-15T09:14:08;92966.97;;;-1.35;39.15
21828;BME280;11076;47.942;11.804;2024-01-15T09:19:11;92972.38;;;-1.30;38.97
21828;BME280;11076;47.942;11.804;2024-01-15T09:24:14;92984.56;;;-1.07;38.84
21828;BME280;11076;47.942;11.804;2024-01-15T09:29:16;92989.56;;;-0.83;38.84
21828;BME280;11076;47.942;11.804;2024-01-15T09:34:19;92985.75;;;-0.92;38.92
21828;BME280;11076;47.942;11.804;2024-01-15T09:39:22;92971.44;;;-0.76;38.31
21828;BME280;11076;47.942;11.804;2024-01-15T09:44:25;92968.59;;;-0.96;38.33
21828;BME280;11076;47.942;11.804;2024-01-15T09:49:28;92968.47;;;-0.79;38.09
21828;BME280;11076;47.942;11.804;2024-01-15T09:54:33;92950.66;;;-0.63;38.36
21828;BME280;11076;47.942;11.804;2024-01-15T09:59:36;92960.88;;;-0.55;38.79
21828;BME280;11076;47.942;11.804;2024-01-15T10:04:39;92963.00;;;-0.52;39.12
21828;BME280;11076;47.942;11.804;2024-01-15T10:09:42;92944.78;;;-0.60;38.93
21828;BME280;11076;47.942;11.804;2024-01-15T10:14:44;92942.97;;;-0.45;38.93
21828;BME280;11076;47.942;11.804;2024-01-15T10:19:46;92941.69;;;-0.37;38.68
21828;BME280;11076;47.942;11.804;2024-01-15T10:24:49;92926.84;;;-0.07;38.46
21828;BME280;11076;47.942;11.804;2024-01-15T10:29:52;92931.38;;;-0.66;38.21
21828;BME280;11076;47.942;11.804;2024-01-15T10:34:56;92926.47;;;-0.31;38.45
21828;BME280;11076;47.942;11.804;2024-01-15T10:40:03;92926.06;;;-0.02;38.00
21828;BME280;11076;47.942;11.804;2024-01-15T10:45:09;92918.69;;;-0.33;38.28
21828;BME280;11076;47.942;11.804;2024-01-15T10:50:12;92904.72;;;-0.45;37.52
21828;BME280;11076;47.942;11.804;2024-01-15T10:55:14;92891.50;;;-0.09;38.22
21828;BME280;11076;47.942;11.804;2024-01-15T11:00:17;92868.97;;;-0.13;38.47
21828;BME280;11076;47.942;11.804;2024-01-15T11:05:20;92874.69;;;0.11;38.34
21828;BME280;11076;47.942;11.804;2024-01-15T11:10:45;92868.53;;;0.21;37.95
21828;BME280;11076;47.942;11.804;2024-01-15T11:16:01;92872.81;;;0.17;38.06
21828;BME280;11076;47.942;11.804;2024-01-15T11:26:45;92850.22;;;-0.13;38.88
21828;BME280;11076;47.942;11.804;2024-01-15T11:41:59;92846.06;;;0.52;38.04
21828;BME280;11076;47.942;11.804;2024-01-15T11:47:09;92832.66;;;0.83;37.78
21828;BME280;11076;47.942;11.804;2024-01-15T11:52:20;92833.44;;;0.79;37.54
21828;BME280;11076;47.942;11.804;2024-01-15T11:57:51;92835.75;;;-0.17;37.39
21828;BME280;11076;47.942;11.804;2024-01-15T12:02:54;92835.81;;;0.03;37.64
21828;BME280;11076;47.942;11.804;2024-01-15T12:07:56;92829.97;;;0.37;37.34
21828;BME280;11076;47.942;11.804;2024-01-15T12:13:10;92830.53;;;0.49;36.59
21828;BME280;11076;47.942;11.804;2024-01-15T12:18:14;92813.78;;;-0.25;36.85
21828;BME280;11076;47.942;11.804;2024-01-15T12:23:18;92803.69;;;0.19;36.69
21828;BME280;11076;47.942;11.804;2024-01-15T12:28:20;92810.66;;;0.25;36.59
21828;BME280;11076;47.942;11.804;2024-01-15T12:33:23;92803.44;;;0.20;37.14
21828;BME280;11076;47.942;11.804;2024-01-15T12:38:28;92810.13;;;0.07;37.03
21828;BME280;11076;47.942;11.804;2024-01-15T12:43:30;92794.03;;;0.07;37.44
21828;BME280;11076;47.942;11.804;2024-01-15T12:48:33;92792.94;;;-0.12;36.88
21828;BME280;11076;47.942;11.804;2024-01-15T12:53:36;92774.22;;;0.13;37.29
21828;BME280;11076;47.942;11.804;2024-01-15T12:58:39;92765.66;;;0.17;37.27
21828;BME280;11076;47.942;11.804;2024-01-15T13:03:41;92749.59;;;0.22;37.29
21828;BME280;11076;47.942;11.804;2024-01-15T13:08:44;92755.22;;;0.20;37.11
21828;BME280;11076;47.942;11.804;2024-01-15T13:13:46;92746.06;;;0.62;36.61
21828;BME280;11076;47.942;11.804;2024-01-15T13:18:49;92741.53;;;0.52;36.72
21828;BME280;11076;47.942;11.804;2024-01-15T13:23:52;92745.78;;;0.59;36.29
21828;BME280;11076;47.942;11.804;2024-01-15T13:28:54;92743.41;;;0.37;36.00
21828;BME280;11076;47.942;11.804;2024-01-15T13:33:56;92741.50;;;0.68;36.27
21828;BME280;11076;47.942;11.804;2024-01-15T13:39:00;92762.72;;;0.39;36.05
21828;BME280;11076;47.942;11.804;2024-01-15T13:44:02;92752.53;;;0.36;36.32
21828;BME280;11076;47.942;11.804;2024-01-15T13:49:04;92753.09;;;0.02;36.82
21828;BME280;11076;47.942;11.804;2024-01-15T13:54:08;92761.91;;;0.53;37.10
21828;BME280;11076;47.942;11.804;2024-01-15T13:59:10;92764.03;;;0.57;36.59
21828;BME280;11076;47.942;11.804;2024-01-15T14:04:13;92767.81;;;0.20;36.02
21828;BME280;11076;47.942;11.804;2024-01-15T14:09:16;92781.19;;;0.14;35.49
21828;BME280;11076;47.942;11.804;2024-01-15T14:14:18;92797.19;;;-0.21;36.18
21828;BME280;11076;47.942;11.804;2024-01-15T14:19:20;92803.16;;;0.06;36.03
21828;BME280;11076;47.942;11.804;2024-01-15T14:24:23;92808.91;;;-0.48;36.47
21828;BME280;11076;47.942;11.804;2024-01-15T14:29:26;92797.19;;;-0.32;36.57
21828;BME280;11076;47.942;11.804;2024-01-15T14:34:29;92821.09;;;-0.10;36.08
21828;BME280;11076;47.942;11.804;2024-01-15T14:39:31;92835.72;;;-0.22;36.49
21828;BME280;11076;47.942;11.804;2024-01-15T14:44:36;92844.72;;;-0.59;36.67
21828;BME280;11076;47.942;11.804;2024-01-15T14:49:40;92838.66;;;-0.34;37.04
21828;BME280;11076;47.942;11.804;2024-01-15T14:54:42;92846.34;;;-0.53;36.78
21828;BME280;11076;47.942;11.804;2024-01-15T14:59:45;92845.06;;;-0.98;37.51
21828;BME280;11076;47.942;11.804;2024-01-15T15:04:48;92857.13;;;-0.91;37.45
21828;BME280;11076;47.942;11.804;2024-01-15T15:09:50;92857.50;;;-0.72;37.42
21828;BME280;11076;47.942;11.804;2024-01-15T15:14:53;92852.38;;;-0.78;37.79
21828;BME280;11076;47.942;11.804;2024-01-15T15:19:56;92853.59;;;-1.01;38.14
21828;BME280;11076;47.942;11.804;2024-01-15T15:24:59;92863.53;;;-0.97;38.16
21828;BME280;11076;47.942;11.804;2024-01-15T15:30:02;92876.19;;;-0.77;37.88
21828;BME280;11076;47.942;11.804;2024-01-15T15:35:04;92887.34;;;-0.90;37.89
21828;BME280;11076;47.942;11.804;2024-01-15T15:40:08;92902.16;;;-0.72;37.41
21828;BME280;11076;47.942;11.804;2024-01-15T15:45:12;92893.53;;;-0.90;37.56
21828;BME280;11076;47.942;11.804;2024-01-15T15:50:15;92913.53;;;-0.92;37.74
21828;BME280;11076;47.942;11.804;2024-01-15T15:55:17;92896.00;;;-0.78;37.85
21828;BME280;11076;47.942;11.804;2024-01-15T16:00:19;92921.13;;;-0.79;37.83
21828;BME280;11076;47.942;11.804;2024-01-15T16:05:22;92930.47;;;-0.81;38.22
21828;BME280;11076;47.942;11.804;2024-01-15T16:10:25;92931.34;;;-1.08;40.01
21828;BME280;11076;47.942;11.804;2024-01-15T16:15:27;92939.25;;;-0.91;39.75
21828;BME280;11076;47.942;11.804;2024-01-15T16:20:30;92946.78;;;-0.83;39.40
21828;BME280;11076;47.942;11.804;2024-01-15T16:25:52;92959.50;;;-1.00;40.60
21828;BME280;11076;47.942;11.804;2024-01-15T16:30:55;92962.31;;;-0.80;39.70
21828;BME280;11076;47.942;11.804;2024-01-15T16:36:00;92969.81;;;-0.82;40.17
21828;BME280;11076;47.942;11.804;2024-01-15T16:41:03;92967.38;;;-0.83;39.96
21828;BME280;11076;47.942;11.804;2024-01-15T16:46:05;92975.22;;;-0.67;39.92
21828;BME280;11076;47.942;11.804;2024-01-15T16:51:08;92974.63;;;-0.79;39.73
21828;BME280;11076;47.942;11.804;2024-01-15T16:56:10;92974.91;;;-0.75;40.12
21828;BME280;11076;47.942;11.804;2024-01-15T17:01:12;92983.00;;;-1.02;40.40
21828;BME280;11076;47.942;11.804;2024-01-15T17:06:15;92988.81;;;-1.11;40.63
21828;BME280;11076;47.942;11.804;2024-01-15T17:11:18;92992.44;;;-1.54;41.29
21828;BME280;11076;47.942;11.804;2024-01-15T17:16:20;92993.03;;;-1.47;41.95
21828;BME280;11076;47.942;11.804;2024-01-15T17:21:23;93017.13;;;-1.42;42.07
21828;BME280;11076;47.942;11.804;2024-01-15T17:26:26;92998.78;;;-1.33;42.40
21828;BME280;11076;47.942;11.804;2024-01-15T17:31:28;93006.13;;;-1.18;41.61
21828;BME280;11076;47.942;11.804;2024-01-15T17:36:31;93017.50;;;-1.33;41.84
21828;BME280;11076;47.942;11.804;2024-01-15T17:41:34;93021.22;;;-1.34;41.87
21828;BME280;11076;47.942;11.804;2024-01-15T17:46:37;93018.53;;;-1.34;41.79
21828;BME280;11076;47.942;11.804;2024-01-15T17:51:39;93023.16;;;-1.30;41.17
21828;BME280;11076;47.942;11.804;2024-01-15T17:56:42;93046.66;;;-1.54;41.58
21828;BME280;11076;47.942;11.804;2024-01-15T18:01:44;93057.13;;;-1.25;40.82
21828;BME280;11076;47.942;11.804;2024-01-15T18:06:48;93068.28;;;-1.33;41.26
21828;BME280;11076;47.942;11.804;2024-01-15T18:11:51;93074.91;;;-1.36;41.05
21828;BME280;11076;47.942;11.804;2024-01-15T18:16:55;93077.34;;;-1.34;40.28
21828;BME280;11076;47.942;11.804;2024-01-15T18:21:59;93096.44;;;-1.48;40.03
21828;BME280;11076;47.942;11.804;2024-01-15T18:27:01;93128.16;;;-1.73;41.56
21828;BME280;11076;47.942;11.804;2024-01-15T18:32:06;93143.63;;;-2.31;41.91
21828;BME280;11076;47.942;11.804;2024-01-15T18:37:08;93146.75;;;-2.17;41.95
21828;BME280;11076;47.942;11.804;2024-01-15T18:42:11;93158.91;;;-2.27;41.85
21828;BME280;11076;47.942;11.804;2024-01-15T18:47:14;93162.56;;;-2.33;41.52
21828;BME280;11076;47.942;11.804;2024-01-15T18:52:16;93175.50;;;-2.87;42.14
21828;BME280;11076;47.942;11.804;2024-01-15T18:57:20;93176.59;;;-2.54;41.92
21828;BME280;11076;47.942;11.804;2024-01-15T19:02:22;93181.59;;;-2.75;42.01
21828;BME280;11076;47.942;11.804;2024-01-15T19:07:25;93191.31;;;-2.69;41.85
21828;BME280;11076;47.942;11.804;2024-01-15T19:12:27;93180.06;;;-2.71;42.00
21828;BME280;11076;47.942;11.804;2024-01-15T19:17:29;93194.63;;;-2.61;40.72
21828;BME280;11076;47.942;11.804;2024-01-15T19:22:32;93211.94;;;-2.47;40.96
21828;BME280;11076;47.942;11.804;2024-01-15T19:27:34;93207.34;;;-2.80;40.89
21828;BME280;11076;47.942;11.804;2024-01-15T19:32:39;93209.50;;;-2.32;40.82
21828;BME280;11076;47.942;11.804;2024-01-15T19:37:43;93212.19;;;-2.32;40.47
21828;BME280;11076;47.942;11.804;2024-01-15T19:42:46;93201.28;;;-2.30;40.20
21828;BME280;11076;47.942;11.804;2024-01-15T19:47:48;93213.22;;;-2.50;40.51
21828;BME280;11076;47.942;11.804;2024-01-15T19:52:51;93219.81;;;-2.69;40.46
21828;BME280;11076;47.942;11.804;2024-01-15T19:57:53;93227.97;;;-2.76;39.60
21828;BME280;11076;47.942;11.804;2024-01-15T20:02:55;93243.00;;;-2.41;38.86
21828;BME280;11076;47.942;11.804;2024-01-15T20:07:58;93253.09;;;-2.72;39.41
21828;BME280;11076;47.942;11.804;2024-01-15T20:13:00;93263.31;;;-2.69;39.31
21828;BME280;11076;47.942;11.804;2024-01-15T20:18:03;93271.22;;;-2.74;39.15
21828;BME280;11076;47.942;11.804;2024-01-15T20:23:06;93278.97;;;-2.72;39.22
21828;BME280;11076;47.942;11.804;2024-01-15T20:28:10;93293.03;;;-2.77;39.43
21828;BME280;11076;47.942;11.804;2024-01-15T20:33:12;93306.13;;;-2.87;39.19
21828;BME280;11076;47.942;11.804;2024-01-15T20:38:15;93310.81;;;-2.66;38.57
21828;BME280;11076;47.942;11.804;2024-01-15T20:43:17;93322.38;;;-2.77;38.36
21828;BME280;11076;47.942;11.804;2024-01-15T20:48:19;93332.69;;;-2.80;38.10
21828;BME280;11076;47.942;11.804;2024-01-15T20:53:24;93338.13;;;-2.87;38.18
21828;BME280;11076;47.942;11.804;2024-01-15T20:58:26;93337.56;;;-2.89;37.63
21828;BME280;11076;47.942;11.804;2024-01-15T21:03:30;93332.97;;;-3.06;37.71
21828;BME280;11076;47.942;11.804;2024-01-15T21:08:32;93343.19;;;-3.26;38.09
21828;BME280;11076;47.942;11.804;2024-01-15T21:13:35;93338.03;;;-3.63;38.89
21828;BME280;11076;47.942;11.804;2024-01-15T21:18:37;93357.22;;;-3.85;39.08
21828;BME280;11076;47.942;11.804;2024-01-15T21:23:40;93341.81;;;-3.40;38.70
21828;BME280;11076;47.942;11.804;2024-01-15T21:28:43;93362.19;;;-3.22;37.84
21828;BME280;11076;47.942;11.804;2024-01-15T21:33:46;93363.13;;;-3.40;38.59
21828;BME280;11076;47.942;11.804;2024-01-15T21:38:48;93366.94;;;-3.48;38.05
21828;BME280;11076;47.942;11.804;2024-01-15T21:43:51;93375.03;;;-3.55;38.35
21828;BME280;11076;47.942;11.804;2024-01-15T21:48:53;93374.88;;;-3.60;37.97
21828;BME280;11076;47.942;11.804;2024-01-15T21:53:57;93372.50;;;-3.50;37.49
21828;BME280;11076;47.942;11.804;2024-01-15T21:59:00;93386.41;;;-3.36;37.47
21828;BME280;11076;47.942;11.804;2024-01-15T22:04:03;93399.38;;;-3.81;37.78
21828;BME280;11076;47.942;11.804;2024-01-15T22:09:05;93405.69;;;-3.64;37.30
21828;BME280;11076;47.942;11.804;2024-01-15T22:14:07;93412.50;;;-4.10;37.45
21828;BME280;11076;47.942;11.804;2024-01-15T22:19:11;93417.09;;;-4.17;37.66
21828;BME280;11076;47.942;11.804;2024-01-15T22:24:14;93416.78;;;-4.09;37.46
21828;BME280;11076;47.942;11.804;2024-01-15T22:29:16;93415.53;;;-3.95;37.35
21828;BME280;11076;47.942;11.804;2024-01-15T22:34:19;93418.31;;;-4.01;37.34
21828;BME280;11076;47.942;11.804;2024-01-15T22:39:22;93435.13;;;-4.19;37.33
21828;BME280;11076;47.942;11.804;2024-01-15T22:44:25;93430.72;;;-4.26;36.90
21828;BME280;11076;47.942;11.804;2024-01-15T22:49:27;93438.88;;;-4.76;37.36
21828;BME280;11076;47.942;11.804;2024-01-15T22:54:29;93430.00;;;-5.07;37.68
21828;BME280;11076;47.942;11.804;2024-01-15T22:59:32;93417.66;;;-5.19;37.63
21828;BME280;11076;47.942;11.804;2024-01-15T23:04:37;93433.91;;;-5.34;37.79
21828;BME280;11076;47.942;11.804;2024-01-15T23:09:41;93429.25;;;-5.64;37.59
21828;BME280;11076;47.942;11.804;2024-01-15T23:14:43;93437.97;;;-5.32;37.76
21828;BME280;11076;47.942;11.804;2024-01-15T23:19:46;93438.16;;;-5.27;37.59
21828;BME280;11076;47.942;11.804;2024-01-15T23:24:48;93460.41;;;-5.28;37.63
21828;BME280;11076;47.942;11.804;2024-01-15T23:29:50;93462.53;;;-5.36;37.61
21828;BME280;11076;47.942;11.804;2024-01-15T23:34:53;93467.44;;;-5.33;37.60
21828;BME280;11076;47.942;11.804;2024-01-15T23:39:55;93473.59;;;-5.39;37.90
21828;BME280;11076;47.942;11.804;2024-01-15T23:44:58;93483.63;;;-5.16;38.03
21828;BME280;11076;47.942;11.804;2024-01-15T23:50:00;93492.94;;;-4.64;37.25
21828;BME280;11076;47.942;11.804;2024-01-15T23:55:05;93492.34;;;-4.66;37.29
